Terminal Aerodrome Forecast
Issued by NWS

Home | Current Version | Previous Version | Text Only | Print | Product List | Glossary On
Versions: 1 2 3 4 5 6 7 8 9 10 11 12 13 14
983
FTUS43 KMPX 290901 AAA
TAFRWF
TAF AMD
KRWF 290901Z 2909/3006 35006KT P6SM BKN250
     FM291600 05011G16KT P6SM OVC150
     FM300200 05007KT P6SM OVC100=

USA.gov is the U.S. government's official web portal to all federal, state and local government web resources and services.